createdAt,value
2023-02-06T00:00:56.978Z,103425.45
2023-02-06T00:03:24.750Z,103436.99
2023-02-06T00:05:59.420Z,103432.45
2023-02-06T00:08:28.275Z,103438.95
2023-02-06T00:10:56.310Z,103437.22
2023-02-06T00:13:24.116Z,103429.02
2023-02-06T00:15:52.134Z,103434.02
2023-02-06T00:18:19.988Z,103445.33
2023-02-06T00:20:47.866Z,103432.05
2023-02-06T00:23:16.136Z,103440.79
2023-02-06T00:25:44.173Z,103443.20
2023-02-06T00:28:12.119Z,103438.17
2023-02-06T00:30:40.094Z,103439.05
2023-02-06T00:33:08.178Z,103442.48
2023-02-06T00:35:36.229Z,103436.21
2023-02-06T00:38:04.377Z,103441.02
2023-02-06T00:40:32.283Z,103441.87
2023-02-06T00:43:00.197Z,103441.63
2023-02-06T00:45:27.991Z,103441.02
2023-02-06T00:47:56.167Z,103434.25
2023-02-06T00:50:24.016Z,103434.51
2023-02-06T00:52:51.826Z,103429.08
2023-02-06T00:55:19.638Z,103429.70
2023-02-06T00:57:47.469Z,103431.89
2023-02-06T01:00:15.766Z,103430.55
2023-02-06T01:02:43.696Z,103436.93
2023-02-06T01:05:11.769Z,103433.85
2023-02-06T01:07:40.806Z,103428.46
2023-02-06T01:10:09.192Z,103428.23
2023-02-06T01:12:37.319Z,103421.07
2023-02-06T01:15:07.011Z,103438.04
2023-02-06T01:17:35.266Z,103432.16
2023-02-06T01:20:03.101Z,103435.62
2023-02-06T01:22:31.072Z,103438.27
2023-02-06T01:24:58.944Z,103443.47
2023-02-06T01:27:26.836Z,103443.92
2023-02-06T01:29:54.728Z,103446.51
2023-02-06T01:32:22.595Z,103451.94
2023-02-06T01:34:50.635Z,103449.09
2023-02-06T01:37:18.529Z,103446.97
2023-02-06T01:39:46.575Z,103448.57
2023-02-06T01:42:14.460Z,103452.23
2023-02-06T01:44:43.136Z,103460.70
2023-02-06T01:47:11.123Z,103447.91
2023-02-06T01:49:57.264Z,103445.37
2023-02-06T01:52:26.074Z,103449.87
2023-02-06T01:54:57.116Z,103451.87
2023-02-06T01:57:24.896Z,103454.68
2023-02-06T01:59:54.803Z,103439.71
2023-02-06T02:02:23.215Z,103444.48
2023-02-06T02:04:51.062Z,103435.16
2023-02-06T02:07:24.735Z,103439.31
2023-02-06T02:09:53.253Z,103431.08
2023-02-06T02:12:21.052Z,103422.21
2023-02-06T02:14:49.636Z,103420.13
2023-02-06T02:17:45.424Z,103416.40
2023-02-06T02:20:39.478Z,103421.43
2023-02-06T02:23:18.900Z,103424.63
2023-02-06T02:26:23.168Z,103416.40
2023-02-06T02:29:14.098Z,103410.15
2023-02-06T02:31:57.175Z,103410.84
2023-02-06T02:35:03.482Z,103418.23
2023-02-06T02:37:34.091Z,103411.69
2023-02-06T02:40:19.265Z,103413.65
2023-02-06T02:43:05.456Z,103406.06
2023-02-06T02:45:47.411Z,103406.06
2023-02-06T02:48:32.436Z,103409.98
2023-02-06T02:51:00.243Z,103413.65
2023-02-06T02:53:28.499Z,103419.30
2023-02-06T02:55:56.649Z,103415.88
2023-02-06T02:58:26.053Z,103415.64
2023-02-06T03:01:02.926Z,103410.45
2023-02-06T03:03:31.635Z,103408.09
2023-02-06T03:06:11.599Z,103400.96
2023-02-06T03:09:15.257Z,103413.13
2023-02-06T03:11:46.763Z,103422.94
2023-02-06T03:14:29.749Z,103420.13
2023-02-06T03:17:00.882Z,103423.55
2023-02-06T03:19:34.511Z,103427.48
2023-02-06T03:22:03.605Z,103428.13
2023-02-06T03:24:34.355Z,103419.66
2023-02-06T03:27:04.493Z,103430.13
2023-02-06T03:29:33.429Z,103431.89
2023-02-06T03:32:21.006Z,103436.18
2023-02-06T03:35:02.619Z,103433.33
2023-02-06T03:37:30.617Z,103436.18
2023-02-06T03:39:59.423Z,103452.72
2023-02-06T03:42:27.369Z,103446.21
2023-02-06T03:45:15.403Z,103442.36
2023-02-06T03:47:43.183Z,103436.50
2023-02-06T03:50:11.088Z,103431.34
2023-02-06T03:52:40.877Z,103437.59
2023-02-06T03:55:11.510Z,103454.29
2023-02-06T03:57:39.347Z,103451.87
2023-02-06T04:00:07.574Z,103449.29
2023-02-06T04:02:35.426Z,103454.03
2023-02-06T04:05:03.147Z,103452.72
2023-02-06T04:07:31.764Z,103440.36
2023-02-06T04:09:59.636Z,103444.71
2023-02-06T04:12:28.383Z,103449.74
2023-02-06T04:14:57.044Z,103448.86
2023-02-06T04:17:43.233Z,103447.39
2023-02-06T04:20:13.041Z,103446.05
2023-02-06T04:22:41.419Z,103441.90
2023-02-06T04:25:09.484Z,103438.46
2023-02-06T04:27:38.203Z,103441.05
2023-02-06T04:30:06.574Z,103442.52
2023-02-06T04:32:34.427Z,103437.09
2023-02-06T04:35:02.294Z,103436.90
2023-02-06T04:37:30.293Z,103430.13
2023-02-06T04:39:58.145Z,103425.35
2023-02-06T04:42:26.131Z,103424.73
2023-02-06T04:44:54.003Z,103420.58
2023-02-06T04:47:21.837Z,103429.67
2023-02-06T04:49:49.699Z,103421.59
2023-02-06T04:52:17.508Z,103407.47
2023-02-06T04:54:45.276Z,103408.84
2023-02-06T04:57:13.016Z,103412.24
2023-02-06T04:59:45.367Z,103404.27
2023-02-06T05:02:13.177Z,103409.92
2023-02-06T05:04:41.076Z,103415.31
2023-02-06T05:07:08.944Z,103417.05
2023-02-06T05:09:36.837Z,103417.05
2023-02-06T05:12:06.181Z,103412.24
2023-02-06T05:14:34.193Z,103406.62
2023-02-06T05:17:02.050Z,103416.82
2023-02-06T05:19:29.943Z,103413.13
2023-02-06T05:21:57.841Z,103405.28
2023-02-06T05:24:25.830Z,103401.81
2023-02-06T05:26:53.603Z,103396.81
2023-02-06T05:29:21.360Z,103401.35
2023-02-06T05:31:49.146Z,103397.92
2023-02-06T05:34:16.940Z,103398.77
2023-02-06T05:36:44.804Z,103400.96
2023-02-06T05:39:15.123Z,103393.61
2023-02-06T05:41:42.958Z,103390.80
2023-02-06T05:44:12.179Z,103390.99
2023-02-06T05:46:39.960Z,103392.95
2023-02-06T05:49:07.827Z,103400.41
2023-02-06T05:51:35.775Z,103400.18
2023-02-06T05:54:03.567Z,103409.76
2023-02-06T05:56:31.403Z,103401.29
2023-02-06T05:58:59.314Z,103405.84
2023-02-06T06:01:27.220Z,103410.84
2023-02-06T06:03:55.029Z,103405.57
2023-02-06T06:06:22.871Z,103406.69
2023-02-06T06:08:50.783Z,103407.57
2023-02-06T06:11:18.606Z,103395.17
2023-02-06T06:13:46.363Z,103387.59
2023-02-06T06:16:14.208Z,103396.02
2023-02-06T06:18:42.065Z,103401.68
2023-02-06T06:21:09.864Z,103404.72
2023-02-06T06:23:37.817Z,103393.21
2023-02-06T06:26:06.145Z,103401.52
2023-02-06T06:28:36.168Z,103395.01
2023-02-06T06:31:04.738Z,103395.86
2023-02-06T06:33:32.614Z,103390.23
2023-02-06T06:36:00.679Z,103396.26
2023-02-06T06:38:28.574Z,103393.45
2023-02-06T06:40:56.334Z,103389.75
2023-02-06T06:43:24.211Z,103387.39
2023-02-06T06:45:52.130Z,103388.05
2023-02-06T06:48:20.053Z,103395.01
2023-02-06T06:50:47.823Z,103394.06
2023-02-06T06:53:15.706Z,103393.45
2023-02-06T06:55:43.553Z,103401.91
2023-02-06T06:58:11.439Z,103418.00
2023-02-06T07:00:39.516Z,103430.13
2023-02-06T07:03:07.792Z,103426.70
2023-02-06T07:05:36.286Z,103423.88
2023-02-06T07:08:04.482Z,103434.05
2023-02-06T07:10:32.335Z,103438.86
2023-02-06T07:13:00.165Z,103435.78
2023-02-06T07:15:28.456Z,103427.09
2023-02-06T07:17:56.253Z,103429.54
2023-02-06T07:20:24.122Z,103424.73
2023-02-06T07:22:52.045Z,103436.24
2023-02-06T07:25:21.442Z,103443.63
2023-02-06T07:27:49.326Z,103439.09
2023-02-06T07:30:20.944Z,103417.31
2023-02-06T07:32:48.878Z,103409.92
2023-02-06T07:35:17.347Z,103408.65
2023-02-06T07:37:45.241Z,103413.88
2023-02-06T07:40:15.556Z,103412.27
2023-02-06T07:42:43.377Z,103408.22
2023-02-06T07:45:11.456Z,103402.80
2023-02-06T07:47:39.255Z,103403.88
2023-02-06T07:50:07.452Z,103402.37
2023-02-06T07:52:35.427Z,103403.55
2023-02-06T07:55:03.432Z,103413.95
2023-02-06T07:57:31.358Z,103405.84
2023-02-06T07:59:59.201Z,103414.63
2023-02-06T08:02:27.166Z,103410.41
2023-02-06T08:04:55.009Z,103408.91
2023-02-06T08:07:22.890Z,103415.05
2023-02-06T08:09:50.820Z,103412.30
2023-02-06T08:12:18.925Z,103416.00
2023-02-06T08:14:47.124Z,103417.57
2023-02-06T08:17:14.974Z,103414.99
2023-02-06T08:19:43.021Z,103420.25
2023-02-06T08:22:10.858Z,103423.06
2023-02-06T08:24:38.725Z,103427.88
2023-02-06T08:27:08.292Z,103428.88
2023-02-06T08:29:43.509Z,103437.81
2023-02-06T08:32:19.773Z,103434.15
2023-02-06T08:34:47.644Z,103436.34
2023-02-06T08:37:15.526Z,103432.38
2023-02-06T08:39:43.514Z,103433.04
2023-02-06T08:42:11.310Z,103444.13
2023-02-06T08:44:39.140Z,103435.39
2023-02-06T08:47:10.431Z,103444.48
2023-02-06T08:49:38.744Z,103445.98
2023-02-06T08:52:07.053Z,103440.55
2023-02-06T08:54:36.856Z,103440.95
2023-02-06T08:57:07.750Z,103442.26
2023-02-06T08:59:36.028Z,103437.98
2023-02-06T09:02:03.755Z,103439.71
2023-02-06T09:04:33.064Z,103441.90
2023-02-06T09:07:01.017Z,103433.20
2023-02-06T09:09:28.855Z,103432.84
2023-02-06T09:11:58.813Z,103425.78
2023-02-06T09:14:26.646Z,103424.21
2023-02-06T09:16:54.521Z,103430.62
2023-02-06T09:19:22.475Z,103424.63
2023-02-06T09:21:50.280Z,103434.15
2023-02-06T09:24:18.353Z,103440.43
2023-02-06T09:26:58.904Z,103444.68
2023-02-06T09:29:28.271Z,103450.59
2023-02-06T09:31:57.003Z,103445.33
2023-02-06T09:34:25.486Z,103448.80
2023-02-06T09:36:55.773Z,103445.98
2023-02-06T09:39:23.785Z,103447.69
2023-02-06T09:42:01.566Z,103435.88
2023-02-06T09:44:40.364Z,103437.74
2023-02-06T09:47:20.350Z,103452.39
2023-02-06T09:49:54.256Z,103448.90
2023-02-06T09:52:47.721Z,103446.48
2023-02-06T09:55:37.707Z,103434.61
2023-02-06T09:58:40.882Z,103429.67
2023-02-06T10:01:33.409Z,103434.21
2023-02-06T10:04:20.447Z,103437.98
2023-02-06T10:06:53.719Z,103436.24
2023-02-06T10:09:40.938Z,103436.11
2023-02-06T10:12:29.858Z,103432.71
2023-02-06T10:15:03.915Z,103435.39
2023-02-06T10:17:35.086Z,103424.50
2023-02-06T10:20:21.322Z,103418.52
2023-02-06T10:22:56.027Z,103411.85
2023-02-06T10:25:30.465Z,103407.89
2023-02-06T10:28:00.139Z,103402.73
2023-02-06T10:31:00.066Z,103403.41
2023-02-06T10:33:41.469Z,103399.63
2023-02-06T10:36:09.294Z,103389.55
2023-02-06T10:38:43.288Z,103386.58
2023-02-06T10:41:38.671Z,103378.89
2023-02-06T10:44:17.043Z,103381.48
2023-02-06T10:46:52.288Z,103374.55
2023-02-06T10:49:31.471Z,103369.18
2023-02-06T10:52:02.114Z,103364.02
2023-02-06T10:54:41.522Z,103362.84
2023-02-06T10:57:18.807Z,103360.78
2023-02-06T10:59:49.301Z,103349.07
2023-02-06T11:02:55.307Z,103355.22
2023-02-06T11:05:31.014Z,103346.10
2023-02-06T11:08:38.196Z,103354.41
2023-02-06T11:11:25.024Z,103350.05
2023-02-06T11:14:15.558Z,103334.39
2023-02-06T11:16:43.655Z,103329.88
2023-02-06T11:19:28.047Z,103319.22
2023-02-06T11:22:08.495Z,103313.20
2023-02-06T11:24:36.685Z,103307.58
2023-02-06T11:27:13.294Z,103303.92
2023-02-06T11:29:50.959Z,103313.53
2023-02-06T11:32:37.649Z,103311.41
2023-02-06T11:35:36.985Z,103299.31
2023-02-06T11:38:16.469Z,103293.98
2023-02-06T11:40:44.700Z,103291.30
2023-02-06T11:43:26.728Z,103293.16
2023-02-06T11:46:18.548Z,103295.32
2023-02-06T11:48:55.406Z,103279.95
2023-02-06T11:51:24.305Z,103273.77
2023-02-06T11:53:58.048Z,103274.72
2023-02-06T11:56:26.086Z,103267.50
2023-02-06T11:59:24.402Z,103266.13
2023-02-06T12:01:52.583Z,103267.53
2023-02-06T12:04:24.805Z,103265.83
2023-02-06T12:07:00.601Z,103258.27
2023-02-06T12:09:28.437Z,103252.06
2023-02-06T12:12:06.804Z,103259.91
2023-02-06T12:14:40.204Z,103256.38
2023-02-06T12:17:31.918Z,103248.73
2023-02-06T12:20:14.487Z,103246.80
2023-02-06T12:22:57.629Z,103251.45
2023-02-06T12:25:31.416Z,103256.41
2023-02-06T12:28:14.140Z,103265.77
2023-02-06T12:30:52.340Z,103263.05
2023-02-06T12:33:23.637Z,103256.31
2023-02-06T12:36:00.815Z,103262.66
2023-02-06T12:39:01.400Z,103253.47
2023-02-06T12:41:35.212Z,103256.22
2023-02-06T12:44:24.235Z,103255.92
2023-02-06T12:46:59.581Z,103248.83
2023-02-06T12:49:46.306Z,103249.94
2023-02-06T12:52:19.517Z,103250.63
2023-02-06T12:54:51.776Z,103241.44
2023-02-06T12:57:24.813Z,103236.80
2023-02-06T13:00:15.622Z,103241.21
2023-02-06T13:03:02.542Z,103231.01
2023-02-06T13:05:39.039Z,103231.40
2023-02-06T13:08:34.687Z,103232.71
2023-02-06T13:11:07.571Z,103237.13
2023-02-06T13:13:40.816Z,103230.59
2023-02-06T13:16:09.157Z,103242.05
2023-02-06T13:18:42.989Z,103249.22
2023-02-06T13:21:19.657Z,103250.82
2023-02-06T13:24:13.652Z,103239.90
2023-02-06T13:26:44.361Z,103241.77
2023-02-06T13:29:28.870Z,103241.50
2023-02-06T13:32:32.138Z,103235.78
2023-02-06T13:35:24.288Z,103232.84
2023-02-06T13:37:52.749Z,103246.87
2023-02-06T13:40:31.672Z,103239.38
2023-02-06T13:43:23.131Z,103238.13
2023-02-06T13:46:00.537Z,103243.30
2023-02-06T13:48:46.913Z,103240.36
2023-02-06T13:51:51.408Z,103239.48
2023-02-06T13:54:52.491Z,103233.36
2023-02-06T13:57:45.105Z,103229.41
2023-02-06T14:00:31.316Z,103236.40
2023-02-06T14:03:07.700Z,103235.78
2023-02-06T14:06:19.048Z,103242.19
2023-02-06T14:09:05.358Z,103230.38
2023-02-06T14:12:16.315Z,103235.55
2023-02-06T14:15:00.657Z,103221.30
2023-02-06T14:18:22.132Z,103228.91
2023-02-06T14:21:11.520Z,103233.20
2023-02-06T14:23:57.596Z,103243.14
2023-02-06T14:26:45.541Z,103245.00
2023-02-06T14:29:30.126Z,103247.81
2023-02-06T14:32:31.815Z,103251.38
2023-02-06T14:35:27.713Z,103250.13
2023-02-06T14:38:33.237Z,103250.13
2023-02-06T14:41:01.116Z,103251.25
2023-02-06T14:43:31.604Z,103265.37
2023-02-06T14:46:07.600Z,103265.47
2023-02-06T14:48:40.775Z,103259.84
2023-02-06T14:51:09.291Z,103256.38
2023-02-06T14:53:38.546Z,103253.66
2023-02-06T14:56:09.612Z,103245.03
2023-02-06T14:58:37.565Z,103248.60
2023-02-06T15:01:19.169Z,103255.98
2023-02-06T15:03:48.072Z,103266.19
2023-02-06T15:06:25.384Z,103259.06
2023-02-06T15:08:53.319Z,103269.23
2023-02-06T15:11:27.094Z,103257.10
2023-02-06T15:13:56.617Z,103272.92
2023-02-06T15:16:24.528Z,103270.08
2023-02-06T15:18:52.398Z,103266.68
2023-02-06T15:21:20.703Z,103266.68
2023-02-06T15:24:03.633Z,103259.91
2023-02-06T15:26:59.329Z,103261.09
2023-02-06T15:29:30.007Z,103264.81
2023-02-06T15:32:05.013Z,103270.21
2023-02-06T15:34:33.138Z,103264.65
2023-02-06T15:37:01.066Z,103266.62
2023-02-06T15:39:28.888Z,103266.25
2023-02-06T15:41:56.820Z,103271.48
2023-02-06T15:44:34.448Z,103286.82
2023-02-06T15:47:03.975Z,103290.48
2023-02-06T15:49:38.164Z,103293.55
2023-02-06T15:52:06.489Z,103289.47
2023-02-06T15:54:35.146Z,103303.46
2023-02-06T15:57:10.157Z,103279.13
2023-02-06T15:59:40.764Z,103279.40
2023-02-06T16:02:10.261Z,103284.17
2023-02-06T16:04:39.198Z,103289.96
2023-02-06T16:07:13.058Z,103281.59
2023-02-06T16:09:43.502Z,103286.00
2023-02-06T16:12:11.408Z,103291.85
2023-02-06T16:14:41.317Z,103277.60
2023-02-06T16:17:15.055Z,103276.12
2023-02-06T16:19:48.717Z,103286.98
2023-02-06T16:22:27.000Z,103294.02
2023-02-06T16:24:57.292Z,103296.27
2023-02-06T16:27:26.970Z,103292.64
2023-02-06T16:29:57.395Z,103291.95
2023-02-06T16:32:30.058Z,103301.08
2023-02-06T16:34:58.146Z,103299.77
2023-02-06T16:37:27.960Z,103305.88
2023-02-06T16:39:55.854Z,103293.09
2023-02-06T16:42:25.851Z,103304.70
2023-02-06T16:44:55.494Z,103312.52
2023-02-06T16:47:23.668Z,103317.06
2023-02-06T16:49:53.234Z,103319.88
2023-02-06T16:52:23.670Z,103325.50
2023-02-06T16:54:51.717Z,103310.49
2023-02-06T16:57:32.816Z,103318.27
2023-02-06T17:00:01.042Z,103324.62
2023-02-06T17:02:29.187Z,103324.09
2023-02-06T17:04:57.244Z,103329.62
2023-02-06T17:07:26.826Z,103323.83
2023-02-06T17:09:55.690Z,103329.29
2023-02-06T17:12:23.675Z,103332.56
2023-02-06T17:14:52.028Z,103332.43
2023-02-06T17:17:21.196Z,103323.34
2023-02-06T17:19:49.748Z,103322.06
2023-02-06T17:22:18.061Z,103327.33
2023-02-06T17:24:46.449Z,103317.75
2023-02-06T17:27:16.951Z,103317.52
2023-02-06T17:29:47.335Z,103320.79
2023-02-06T17:32:17.691Z,103319.94
2023-02-06T17:34:45.597Z,103312.65
2023-02-06T17:37:21.790Z,103310.46
2023-02-06T17:39:51.193Z,103298.33
2023-02-06T17:42:19.273Z,103301.99
2023-02-06T17:44:47.234Z,103306.57
2023-02-06T17:47:15.199Z,103311.34
2023-02-06T17:49:43.287Z,103310.23
2023-02-06T17:52:11.421Z,103303.73
2023-02-06T17:54:39.455Z,103304.61
2023-02-06T17:57:07.521Z,103300.68
2023-02-06T17:59:35.585Z,103299.60
2023-02-06T18:02:03.630Z,103288.06
2023-02-06T18:04:31.820Z,103293.49
2023-02-06T18:06:59.782Z,103289.80
2023-02-06T18:09:27.760Z,103293.72
2023-02-06T18:11:55.742Z,103286.76
2023-02-06T18:14:24.047Z,103283.95
2023-02-06T18:16:52.221Z,103286.98
2023-02-06T18:19:25.246Z,103293.33
2023-02-06T18:21:53.452Z,103291.37
2023-02-06T18:24:21.322Z,103278.13
2023-02-06T18:26:49.307Z,103285.09
2023-02-06T18:29:17.331Z,103276.88
2023-02-06T18:31:45.400Z,103277.99
2023-02-06T18:34:13.766Z,103279.70
2023-02-06T18:36:42.033Z,103273.68
2023-02-06T18:39:10.065Z,103265.44
2023-02-06T18:41:56.934Z,103272.80
2023-02-06T18:44:26.239Z,103264.09
2023-02-06T18:46:54.328Z,103262.00
2023-02-06T18:49:22.307Z,103267.86
2023-02-06T18:51:50.390Z,103258.54
2023-02-06T18:54:18.434Z,103262.20
2023-02-06T18:56:48.388Z,103253.30
2023-02-06T18:59:17.833Z,103252.45
2023-02-06T19:01:45.871Z,103250.00
2023-02-06T19:04:14.138Z,103251.12
2023-02-06T19:06:44.266Z,103246.54
2023-02-06T19:09:14.410Z,103243.27
2023-02-06T19:11:43.352Z,103245.69
2023-02-06T19:14:14.572Z,103236.86
2023-02-06T19:16:45.890Z,103232.09
2023-02-06T19:19:13.891Z,103241.86
2023-02-06T19:21:42.278Z,103241.24
2023-02-06T19:24:12.831Z,103240.59
2023-02-06T19:26:41.338Z,103235.23
2023-02-06T19:29:09.374Z,103229.02
2023-02-06T19:31:40.471Z,103225.45
2023-02-06T19:34:08.532Z,103223.32
2023-02-06T19:36:36.667Z,103224.92
2023-02-06T19:39:07.998Z,103223.03
2023-02-06T19:41:36.254Z,103226.73
2023-02-06T19:44:09.580Z,103213.81
2023-02-06T19:46:38.111Z,103220.28
2023-02-06T19:49:07.484Z,103212.11
2023-02-06T19:51:40.676Z,103205.93
2023-02-06T19:54:08.857Z,103217.41
2023-02-06T19:56:42.095Z,103210.05
2023-02-06T19:59:23.086Z,103207.40
2023-02-06T20:01:55.780Z,103203.74
2023-02-06T20:04:25.823Z,103191.28
2023-02-06T20:06:53.929Z,103199.45
2023-02-06T20:09:22.300Z,103206.42
2023-02-06T20:11:50.607Z,103183.04
2023-02-06T20:14:18.982Z,103187.81
2023-02-06T20:16:47.196Z,103182.20
2023-02-06T20:19:17.408Z,103185.00
2023-02-06T20:21:50.591Z,103188.96
2023-02-06T20:24:21.987Z,103193.08
2023-02-06T20:26:54.018Z,103184.41
2023-02-06T20:29:25.510Z,103166.73
2023-02-06T20:31:53.584Z,103161.30
2023-02-06T20:34:23.015Z,103183.40
2023-02-06T20:36:51.375Z,103178.04
2023-02-06T20:39:19.962Z,103171.96
2023-02-06T20:41:48.240Z,103173.89
2023-02-06T20:44:16.552Z,103176.73
2023-02-06T20:46:44.543Z,103188.63
2023-02-06T20:49:23.718Z,103194.06
2023-02-06T20:51:51.790Z,103192.95
2023-02-06T20:54:20.922Z,103192.10
2023-02-06T20:56:49.085Z,103188.83
2023-02-06T20:59:18.626Z,103184.25
2023-02-06T21:01:46.722Z,103176.47
2023-02-06T21:04:15.794Z,103174.93
2023-02-06T21:06:44.432Z,103164.77
2023-02-06T21:09:12.491Z,103164.57
2023-02-06T21:11:42.912Z,103160.84
2023-02-06T21:14:25.138Z,103155.48
2023-02-06T21:16:53.147Z,103158.48
2023-02-06T21:19:22.038Z,103153.32
2023-02-06T21:21:50.621Z,103141.91
2023-02-06T21:24:19.014Z,103151.39
2023-02-06T21:26:47.118Z,103149.89
2023-02-06T21:29:15.676Z,103150.51
2023-02-06T21:31:43.991Z,103157.44
2023-02-06T21:34:20.380Z,103153.13
2023-02-06T21:36:48.612Z,103149.43
2023-02-06T21:39:19.833Z,103145.57
2023-02-06T21:41:48.389Z,103139.10
2023-02-06T21:44:16.407Z,103133.93
2023-02-06T21:46:44.411Z,103126.80
2023-02-06T21:49:14.226Z,103132.82
2023-02-06T21:51:43.771Z,103121.57
2023-02-06T21:54:13.903Z,103128.05
2023-02-06T21:56:42.109Z,103131.74
2023-02-06T21:59:11.208Z,103120.04
2023-02-06T22:01:41.784Z,103126.54
2023-02-06T22:04:10.660Z,103120.27
2023-02-06T22:06:38.924Z,103109.48
2023-02-06T22:09:08.947Z,103109.09
2023-02-06T22:11:38.388Z,103092.80
2023-02-06T22:14:13.013Z,103097.84
2023-02-06T22:16:41.052Z,103100.65
2023-02-06T22:19:09.204Z,103090.51
2023-02-06T22:21:37.283Z,103091.82
2023-02-06T22:24:07.595Z,103097.05
2023-02-06T22:26:40.295Z,103098.81
2023-02-06T22:29:09.260Z,103108.79
2023-02-06T22:31:37.694Z,103109.05
2023-02-06T22:34:05.796Z,103101.20
2023-02-06T22:36:34.237Z,103105.13
2023-02-06T22:39:04.103Z,103110.36
2023-02-06T22:41:32.077Z,103119.64
2023-02-06T22:44:00.083Z,103110.81
2023-02-06T22:46:31.657Z,103111.02
2023-02-06T22:48:59.794Z,103114.48
2023-02-06T22:51:28.044Z,103110.62
2023-02-06T22:53:56.020Z,103108.69
2023-02-06T22:56:30.569Z,103115.88
2023-02-06T22:59:09.218Z,103119.09
2023-02-06T23:01:44.979Z,103123.89
2023-02-06T23:04:15.430Z,103125.40
2023-02-06T23:06:43.633Z,103116.57
2023-02-06T23:09:14.900Z,103122.20
2023-02-06T23:11:42.740Z,103118.56
2023-02-06T23:14:11.798Z,103122.23
2023-02-06T23:16:39.628Z,103126.15
2023-02-06T23:19:08.031Z,103128.99
2023-02-06T23:21:38.357Z,103129.19
2023-02-06T23:24:08.075Z,103128.34
2023-02-06T23:26:35.998Z,103117.95
2023-02-06T23:29:05.371Z,103120.76
2023-02-06T23:31:33.588Z,103111.02
2023-02-06T23:34:01.827Z,103117.55
2023-02-06T23:36:29.702Z,103121.45
2023-02-06T23:38:57.598Z,103113.70
2023-02-06T23:41:27.243Z,103127.52
2023-02-06T23:43:59.423Z,103118.01
2023-02-06T23:46:27.895Z,103107.87
2023-02-06T23:48:55.762Z,103100.32
2023-02-06T23:51:23.802Z,103091.91
2023-02-06T23:53:51.955Z,103085.64
2023-02-06T23:56:22.194Z,103090.41
2023-02-06T23:58:50.054Z,103090.45
